createdAt,value
2018-02-22T00:04:52.004Z,100166
2018-02-22T00:09:59.413Z,100157
2018-02-22T00:15:02.884Z,100157
2018-02-22T00:20:09.578Z,100152
2018-02-22T00:25:13.015Z,100150
2018-02-22T00:30:16.986Z,100148
2018-02-22T00:35:20.526Z,100156
2018-02-22T00:40:28.057Z,100156
2018-02-22T00:45:31.389Z,100154
2018-02-22T00:50:35.958Z,100142
2018-02-22T00:55:40.620Z,100137
2018-02-22T01:00:44.674Z,100136
2018-02-22T01:05:48.594Z,100116
2018-02-22T01:10:56.226Z,100124
2018-02-22T01:15:59.608Z,100118
2018-02-22T01:21:06.666Z,100111
2018-02-22T01:26:10.107Z,100102
2018-02-22T01:31:15.345Z,100096
2018-02-22T01:36:19.734Z,100091
2018-02-22T01:41:24.976Z,100099
2018-02-22T01:46:28.460Z,100092
2018-02-22T01:51:33.365Z,100086
2018-02-22T01:56:37.065Z,100085
2018-02-22T02:01:41.738Z,100084
2018-02-22T02:06:45.164Z,100084
2018-02-22T02:11:52.465Z,100092
2018-02-22T02:16:55.813Z,100098
2018-02-22T02:22:03.272Z,100089
2018-02-22T02:27:08.803Z,100083
2018-02-22T02:32:12.732Z,100081
2018-02-22T02:37:20.290Z,100091
2018-02-22T02:42:24.902Z,100084
2018-02-22T02:47:30.460Z,100086
2018-02-22T02:52:34.376Z,100081
2018-02-22T02:57:38.997Z,100076
2018-02-22T03:02:42.444Z,100077
2018-02-22T03:07:49.177Z,100068
2018-02-22T03:12:52.704Z,100072
2018-02-22T03:18:03.137Z,100067
2018-02-22T03:23:06.644Z,100070
2018-02-22T03:28:13.325Z,100069
2018-02-22T03:33:16.800Z,100071
2018-02-22T03:38:24.361Z,100064
2018-02-22T03:43:27.905Z,100074
2018-02-22T03:48:32.973Z,100074
2018-02-22T03:53:36.942Z,100073
2018-02-22T03:58:47.457Z,100067
2018-02-22T04:03:51.092Z,100068
2018-02-22T04:08:55.873Z,100072
2018-02-22T04:13:59.626Z,100077
2018-02-22T04:19:07.328Z,100073
2018-02-22T04:24:10.789Z,100079
2018-02-22T04:29:17.492Z,100082
2018-02-22T04:34:20.757Z,100073
2018-02-22T04:39:25.305Z,100068
2018-02-22T04:44:29.423Z,100068
2018-02-22T04:49:37.251Z,100069
2018-02-22T04:54:40.482Z,100064
2018-02-22T04:59:44.146Z,100061
2018-02-22T05:04:48.829Z,100064
2018-02-22T05:09:53.709Z,100076
2018-02-22T05:14:57.818Z,100081
2018-02-22T05:20:02.217Z,100088
2018-02-22T05:25:06.281Z,100094
2018-02-22T05:30:10.004Z,100100
2018-02-22T05:35:13.464Z,100100
2018-02-22T05:40:18.764Z,100103
2018-02-22T05:45:22.753Z,100104
2018-02-22T05:50:29.808Z,100098
2018-02-22T05:55:33.974Z,100096
2018-02-22T06:00:43.678Z,100105
2018-02-22T06:05:47.301Z,100106
2018-02-22T06:10:51.553Z,100109
2018-02-22T06:15:55.298Z,100109
2018-02-22T06:21:03.666Z,100113
2018-02-22T06:26:07.490Z,100112
2018-02-22T06:31:13.077Z,100119
2018-02-22T06:36:17.245Z,100117
2018-02-22T06:41:21.910Z,100106
2018-02-22T06:46:25.541Z,100099
2018-02-22T06:51:28.937Z,100101
2018-02-22T06:56:39.166Z,100101
2018-02-22T07:01:43.347Z,100100
2018-02-22T07:06:47.987Z,100100
2018-02-22T07:11:52.077Z,100096
2018-02-22T07:16:59.786Z,100103
2018-02-22T07:22:03.211Z,100113
2018-02-22T07:27:07.776Z,100110
2018-02-22T07:32:11.886Z,100126
2018-02-22T07:37:19.869Z,100131
2018-02-22T07:42:24.202Z,100123
2018-02-22T07:47:32.290Z,100141
2018-02-22T07:52:36.009Z,100139
2018-02-22T07:57:43.770Z,100138
2018-02-22T08:02:47.293Z,100131
2018-02-22T08:07:52.150Z,100127
2018-02-22T08:12:56.315Z,100143
2018-02-22T08:18:00.858Z,100146
2018-02-22T08:23:04.314Z,100123
2018-02-22T08:28:11.326Z,100110
2018-02-22T08:33:14.598Z,100107
2018-02-22T08:38:19.249Z,100116
2018-02-22T08:43:23.716Z,100114
2018-02-22T08:48:28.628Z,100105
2018-02-22T08:53:33.086Z,100102
2018-02-22T08:58:41.862Z,100102
2018-02-22T09:03:45.367Z,100093
2018-02-22T09:08:48.984Z,100092
2018-02-22T09:13:53.122Z,100093
2018-02-22T09:18:57.157Z,100095
2018-02-22T09:24:00.921Z,100095
2018-02-22T09:29:08.081Z,100102
2018-02-22T09:34:12.342Z,100092
2018-02-22T09:39:19.357Z,100086
2018-02-22T09:44:23.270Z,100093
2018-02-22T09:49:27.570Z,100104
2018-02-22T09:54:31.350Z,100111
2018-02-22T09:59:38.353Z,100104
2018-02-22T10:04:42.522Z,100104
2018-02-22T10:09:47.681Z,100099
2018-02-22T10:14:51.220Z,100087
2018-02-22T10:19:55.946Z,100093
2018-02-22T10:24:59.358Z,100090
2018-02-22T10:30:04.086Z,100101
2018-02-22T10:35:08.314Z,100106
2018-02-22T10:40:16.310Z,100105
2018-02-22T10:45:20.079Z,100118
2018-02-22T10:50:24.230Z,100118
2018-02-22T10:55:28.062Z,100116
2018-02-22T11:00:41.610Z,100128
2018-02-22T11:05:45.324Z,100129
2018-02-22T11:10:49.472Z,100122
2018-02-22T11:15:53.280Z,100127
2018-02-22T11:20:57.353Z,100126
2018-02-22T11:26:01.971Z,100111
2018-02-22T11:31:05.941Z,100116
2018-02-22T11:36:11.138Z,100112
2018-02-22T11:41:15.122Z,100104
2018-02-22T11:46:18.868Z,100101
2018-02-22T11:51:23.971Z,100105
2018-02-22T11:56:33.375Z,100105
2018-02-22T12:01:36.691Z,100098
2018-02-22T12:06:40.976Z,100091
2018-02-22T12:11:44.333Z,100087
2018-02-22T12:16:50.842Z,100083
2018-02-22T12:21:54.294Z,100085
2018-02-22T12:26:58.510Z,100078
2018-02-22T12:32:02.784Z,100084
2018-02-22T12:37:07.246Z,100089
2018-02-22T12:42:10.923Z,100103
2018-02-22T12:47:14.815Z,100107
2018-02-22T12:52:18.521Z,100108
2018-02-22T12:57:25.598Z,100116
2018-02-22T13:02:29.435Z,100111
2018-02-22T13:07:33.997Z,100113
2018-02-22T13:12:39.127Z,100112
2018-02-22T13:17:42.805Z,100120
2018-02-22T13:22:46.402Z,100114
2018-02-22T13:27:57.309Z,100112
2018-02-22T13:33:18.703Z,100116
2018-02-22T13:38:43.287Z,100117
2018-02-22T13:43:46.750Z,100128
2018-02-22T13:49:08.338Z,100133
2018-02-22T13:54:12.251Z,100138
2018-02-22T13:59:17.041Z,100137
2018-02-22T14:04:20.902Z,100137
2018-02-22T14:09:28.052Z,100138
2018-02-22T14:14:31.393Z,100138
2018-02-22T14:19:36.006Z,100137
2018-02-22T14:24:40.019Z,100135
2018-02-22T14:29:46.883Z,100142
2018-02-22T14:34:52.141Z,100154
2018-02-22T14:39:55.603Z,100155
2018-02-22T14:44:59.590Z,100166
2018-02-22T14:50:03.309Z,100164
2018-02-22T14:55:07.022Z,100162
2018-02-22T15:00:11.389Z,100155
2018-02-22T15:05:16.341Z,100152
2018-02-22T15:10:20.308Z,100160
2018-02-22T15:15:24.830Z,100155
2018-02-22T15:20:29.317Z,100148
2018-02-22T15:25:33.941Z,100145
2018-02-22T15:30:38.011Z,100152
2018-02-22T15:35:43.514Z,100159
2018-02-22T15:40:47.497Z,100161
2018-02-22T15:45:51.402Z,100149
2018-02-22T15:50:55.247Z,100183
2018-02-22T15:56:03.236Z,100191
2018-02-22T16:01:06.655Z,100190
2018-02-22T16:06:14.619Z,100192
2018-02-22T16:11:18.038Z,100188
2018-02-22T16:16:23.513Z,100189
2018-02-22T16:21:27.331Z,100192
2018-02-22T16:26:34.597Z,100196
2018-02-22T16:31:38.638Z,100191
2018-02-22T16:36:45.266Z,100201
2018-02-22T16:41:48.778Z,100194
2018-02-22T16:46:53.356Z,100194
2018-02-22T16:51:57.882Z,100212
2018-02-22T16:57:02.563Z,100199
2018-02-22T17:02:06.578Z,100203
2018-02-22T17:07:13.884Z,100203
2018-02-22T17:12:17.295Z,100210
2018-02-22T17:17:34.355Z,100213
2018-02-22T17:22:38.159Z,100214
2018-02-22T17:27:49.377Z,100220
2018-02-22T17:32:53.629Z,100219
2018-02-22T17:38:11.898Z,100221
2018-02-22T17:43:15.602Z,100222
2018-02-22T17:48:20.777Z,100233
2018-02-22T17:53:24.453Z,100235
2018-02-22T17:58:32.379Z,100227
2018-02-22T18:03:37.234Z,100233
2018-02-22T18:08:43.678Z,100234
2018-02-22T18:13:47.250Z,100225
2018-02-22T18:18:54.411Z,100228
2018-02-22T18:23:58.810Z,100237
2018-02-22T18:29:03.789Z,100243
2018-02-22T18:34:07.538Z,100242
2018-02-22T18:39:25.783Z,100240
2018-02-22T18:44:35.843Z,100238
2018-02-22T18:49:40.924Z,100238
2018-02-22T18:54:46.494Z,100249
2018-02-22T18:59:52.164Z,100254
2018-02-22T19:04:55.817Z,100255
2018-02-22T19:10:02.399Z,100254
2018-02-22T19:15:06.271Z,100265
2018-02-22T19:20:10.203Z,100264
2018-02-22T19:25:18.239Z,100273
2018-02-22T19:30:22.125Z,100275
2018-02-22T19:35:25.751Z,100285
2018-02-22T19:40:31.622Z,100291
2018-02-22T19:45:35.666Z,100295
2018-02-22T19:50:39.487Z,100301
2018-02-22T19:55:46.745Z,100310
2018-02-22T20:00:50.903Z,100309
2018-02-22T20:05:55.110Z,100310
2018-02-22T20:10:59.072Z,100310
2018-02-22T20:16:07.547Z,100316
2018-02-22T20:21:11.752Z,100323
2018-02-22T20:26:15.210Z,100329
2018-02-22T20:31:18.612Z,100320
2018-02-22T20:36:22.812Z,100324
2018-02-22T20:41:26.273Z,100332
2018-02-22T20:46:31.802Z,100331
2018-02-22T20:51:47.911Z,100326
2018-02-22T20:56:53.906Z,100320
2018-02-22T21:01:58.042Z,100324
2018-02-22T21:07:03.802Z,100327
2018-02-22T21:12:07.994Z,100328
2018-02-22T21:17:12.585Z,100324
2018-02-22T21:22:16.899Z,100325
2018-02-22T21:27:20.434Z,100315
2018-02-22T21:32:25.117Z,100325
2018-02-22T21:37:30.209Z,100320
2018-02-22T21:42:34.111Z,100315
2018-02-22T21:47:39.182Z,100323
2018-02-22T21:52:42.583Z,100321
2018-02-22T21:57:46.710Z,100327
2018-02-22T22:02:51.050Z,100328
2018-02-22T22:07:55.401Z,100328
2018-02-22T22:12:59.097Z,100331
2018-02-22T22:18:03.845Z,100333
2018-02-22T22:23:07.364Z,100331
2018-02-22T22:28:14.833Z,100329
2018-02-22T22:33:18.697Z,100333
2018-02-22T22:38:23.000Z,100331
2018-02-22T22:43:26.588Z,100328
2018-02-22T22:48:31.500Z,100323
2018-02-22T22:53:35.914Z,100328
2018-02-22T22:58:40.878Z,100324
2018-02-22T23:03:44.465Z,100324
2018-02-22T23:08:51.761Z,100328
2018-02-22T23:13:55.242Z,100326
2018-02-22T23:18:58.585Z,100326
2018-02-22T23:24:02.873Z,100330
2018-02-22T23:29:06.501Z,100330
2018-02-22T23:34:13.505Z,100334
2018-02-22T23:39:18.466Z,100330
2018-02-22T23:44:26.332Z,100333
2018-02-22T23:49:29.799Z,100334
2018-02-22T23:54:34.237Z,100336
2018-02-22T23:59:38.285Z,100331
